Time;durP1;ratioP1;P1;durP2;ratioP2;P2;SDS_P1;SDS_P2;PMS_P1;PMS_P2;Temp;Humidity;BMP_temperature;BMP_pressure;BME280_temperature;BME280_humidity;BME280_pressure;Samples;Min_cycle;Max_cycle;Signal;HPM_P1;HPM_P2
2023/08/01 00:02:10;;;;;;;;;;;;;;;16.63;100.00;95550.13;5105731;28;19940;-73
2023/08/01 00:04:36;;;;;;;;;;;;;;;16.66;100.00;95548.00;5087719;28;19940;-77
2023/08/01 00:07:02;;;;;;;;;;;;;;;16.66;100.00;95548.78;5106485;28;20111;-78
2023/08/01 00:09:28;;;;;;;;;;;;;;;16.68;100.00;95537.94;5087639;28;20209;-77
2023/08/01 00:11:54;;;;;;;;;;;;;;;16.69;100.00;95532.34;5104708;28;19940;-79
2023/08/01 00:14:23;;;;;;;;;;;;;;;16.70;100.00;95531.28;5104928;28;20117;-77
2023/08/01 00:16:50;;;;;;;;;;;;;;;16.70;100.00;95533.94;5106312;28;20097;-77
2023/08/01 00:19:16;;;;;;;;;;;;;;;16.72;100.00;95531.00;5105631;28;19968;-73
2023/08/01 00:21:42;;;;;;;;;;;;;;;16.73;100.00;95521.97;5105058;28;19945;-77
2023/08/01 00:24:08;;;;;;;;;;;;;;;16.73;100.00;95508.75;5105311;28;19940;-78
2023/08/01 00:26:34;;;;;;;;;;;;;;;16.73;100.00;95508.75;5104793;28;19940;-78
2023/08/01 00:29:00;;;;;;;;;;;;;;;16.72;100.00;95499.25;5106055;28;20202;-78
2023/08/01 00:31:26;;;;;;;;;;;;;;;16.70;100.00;95494.22;5104134;28;19949;-78
2023/08/01 00:33:51;;;;;;;;;;;;;;;16.68;100.00;95498.22;5105057;28;20016;-77
2023/08/01 00:36:17;;;;;;;;;;;;;;;16.69;100.00;95502.44;5087823;28;19944;-78
2023/08/01 00:38:43;;;;;;;;;;;;;;;16.69;100.00;95497.13;5105587;28;19965;-77
2023/08/01 00:41:09;;;;;;;;;;;;;;;16.69;100.00;95503.22;5105087;28;19933;-72
2023/08/01 00:43:35;;;;;;;;;;;;;;;16.69;100.00;95499.78;5103928;28;19948;-72
2023/08/01 00:46:03;;;;;;;;;;;;;;;16.69;100.00;95487.34;5103842;28;19942;-72
2023/08/01 00:48:29;;;;;;;;;;;;;;;16.71;100.00;95492.34;5104529;28;19949;-72
2023/08/01 00:50:56;;;;;;;;;;;;;;;16.70;100.00;95483.63;5087601;28;19944;-73
2023/08/01 00:53:22;;;;;;;;;;;;;;;16.69;100.00;95476.75;5086906;28;19954;-72
2023/08/01 00:55:48;;;;;;;;;;;;;;;16.69;100.00;95487.34;5103471;28;19980;-72
2023/08/01 00:58:14;;;;;;;;;;;;;;;16.67;100.00;95484.16;5086722;28;19960;-73
2023/08/01 01:00:40;;;;;;;;;;;;;;;16.67;100.00;95491.34;5104686;28;20228;-73
2023/08/01 01:03:06;;;;;;;;;;;;;;;16.68;100.00;95490.28;5086824;28;20210;-73
2023/08/01 01:05:34;;;;;;;;;;;;;;;16.68;100.00;95493.72;5104619;28;19942;-74
2023/08/01 01:08:02;;;;;;;;;;;;;;;16.71;100.00;95481.75;5103488;28;20239;-75
2023/08/01 01:10:27;;;;;;;;;;;;;;;16.69;100.00;95474.09;5104271;28;19948;-75
2023/08/01 01:12:56;;;;;;;;;;;;;;;16.68;100.00;95466.47;5105167;28;19953;-76
2023/08/01 01:15:22;;;;;;;;;;;;;;;16.67;100.00;95468.28;5104614;28;19941;-70
2023/08/01 01:17:47;;;;;;;;;;;;;;;16.66;100.00;95464.09;5104582;28;19931;-76
2023/08/01 01:20:13;;;;;;;;;;;;;;;16.61;100.00;95458.84;5103221;28;19968;-75
2023/08/01 01:22:40;;;;;;;;;;;;;;;16.59;100.00;95443.25;5103326;28;19944;-76
2023/08/01 01:25:07;;;;;;;;;;;;;;;16.58;100.00;95433.72;5105264;28;19936;-75
2023/08/01 01:27:34;;;;;;;;;;;;;;;16.57;100.00;95436.66;5104037;28;20122;-75
2023/08/01 01:30:01;;;;;;;;;;;;;;;16.55;100.00;95426.34;5104369;28;19949;-76
2023/08/01 01:32:28;;;;;;;;;;;;;;;16.55;100.00;95436.16;5103999;28;19941;-75
2023/08/01 01:34:54;;;;;;;;;;;;;;;16.54;100.00;95416.81;5103118;28;19963;-77
2023/08/01 01:37:19;;;;;;;;;;;;;;;16.54;100.00;95421.31;5104282;28;20120;-78
2023/08/01 01:39:45;;;;;;;;;;;;;;;16.53;100.00;95417.13;5104838;28;19940;-77
2023/08/01 01:42:13;;;;;;;;;;;;;;;16.50;100.00;95415.00;5104242;28;19941;-77
2023/08/01 01:44:39;;;;;;;;;;;;;;;16.47;100.00;95405.00;5104217;28;19940;-76
2023/08/01 01:47:05;;;;;;;;;;;;;;;16.42;100.00;95396.03;5104690;28;20009;-79
2023/08/01 01:49:31;;;;;;;;;;;;;;;16.40;100.00;95390.25;5104203;28;19946;-78
2023/08/01 01:51:57;;;;;;;;;;;;;;;16.39;100.00;95388.66;5104185;28;19943;-76
2023/08/01 01:54:23;;;;;;;;;;;;;;;16.40;100.00;95377.00;5104875;28;19953;-76
2023/08/01 01:56:49;;;;;;;;;;;;;;;16.42;100.00;95382.81;5104008;28;19975;-78
2023/08/01 01:59:14;;;;;;;;;;;;;;;16.43;100.00;95378.31;5104260;28;20128;-78
2023/08/01 02:01:40;;;;;;;;;;;;;;;16.44;100.00;95377.22;5104081;28;20224;-78
2023/08/01 02:04:06;;;;;;;;;;;;;;;16.41;100.00;95381.22;5104822;28;20224;-78
2023/08/01 02:06:32;;;;;;;;;;;;;;;16.40;100.00;95377.00;5104597;28;20225;-78
2023/08/01 02:08:58;;;;;;;;;;;;;;;16.39;100.00;95380.72;5104472;28;19936;-79
2023/08/01 02:11:23;;;;;;;;;;;;;;;16.37;100.00;95368.84;5103985;28;19935;-77
2023/08/01 02:13:49;;;;;;;;;;;;;;;16.36;100.00;95376.00;5103624;28;19957;-74
2023/08/01 02:16:15;;;;;;;;;;;;;;;16.35;100.00;95369.13;5085981;28;19941;-74
2023/08/01 02:18:41;;;;;;;;;;;;;;;16.36;100.00;95368.06;5103234;28;19965;-75
2023/08/01 02:21:07;;;;;;;;;;;;;;;16.36;100.00;95370.72;5103579;28;19947;-76
2023/08/01 02:23:36;;;;;;;;;;;;;;;16.39;100.00;95372.78;5106203;28;19984;-75
2023/08/01 02:26:01;;;;;;;;;;;;;;;16.41;100.00;95380.44;5107630;28;20116;-76
2023/08/01 02:28:27;;;;;;;;;;;;;;;16.40;100.00;95377.00;5090348;28;19938;-78
2023/08/01 02:30:53;;;;;;;;;;;;;;;16.41;100.00;95375.94;5106469;28;19946;-73
2023/08/01 02:33:19;;;;;;;;;;;;;;;16.42;100.00;95372.22;5107467;28;19955;-73
2023/08/01 02:35:46;;;;;;;;;;;;;;;16.42;100.00;95366.94;5108295;28;20078;-72
2023/08/01 02:38:12;;;;;;;;;;;;;;;16.43;100.00;95371.16;5106343;28;19942;-72
2023/08/01 02:40:38;;;;;;;;;;;;;;;16.43;100.00;95373.78;5089329;28;19946;-72
2023/08/01 02:43:04;;;;;;;;;;;;;;;16.44;100.00;95370.09;5106140;28;19943;-73
2023/08/01 02:45:29;;;;;;;;;;;;;;;16.47;100.00;95375.91;5106283;28;19937;-72
2023/08/01 02:47:55;;;;;;;;;;;;;;;16.48;100.00;95364.22;5108048;28;19937;-71
2023/08/01 02:50:21;;;;;;;;;;;;;;;16.50;100.00;95373.44;5107749;28;19936;-78
2023/08/01 02:52:47;;;;;;;;;;;;;;;16.52;100.00;95383.75;5107154;28;19934;-78
2023/08/01 02:55:13;;;;;;;;;;;;;;;16.53;100.00;95372.13;5106164;28;19958;-78
2023/08/01 02:57:39;;;;;;;;;;;;;;;16.54;100.00;95365.75;5106982;28;19963;-76
2023/08/01 03:00:05;;;;;;;;;;;;;;;16.54;100.00;95363.88;5106935;28;19942;-76
2023/08/01 03:02:32;;;;;;;;;;;;;;;16.54;100.00;95353.28;5107257;28;19970;-76
2023/08/01 03:04:57;;;;;;;;;;;;;;;16.56;100.00;95363.59;5107720;28;20241;-75
2023/08/01 03:07:23;;;;;;;;;;;;;;;16.54;100.00;95357.81;5106891;28;19942;-73
2023/08/01 03:09:49;;;;;;;;;;;;;;;16.54;100.00;95373.69;5107417;28;19949;-74
2023/08/01 03:12:15;;;;;;;;;;;;;;;16.52;100.00;95363.38;5106858;28;19939;-73
2023/08/01 03:14:43;;;;;;;;;;;;;;;16.52;100.00;95360.72;5106263;28;19965;-74
2023/08/01 03:17:09;;;;;;;;;;;;;;;16.54;100.00;95365.75;5106288;28;19939;-74
2023/08/01 03:19:34;;;;;;;;;;;;;;;16.53;100.00;95361.53;5105528;28;19969;-74
2023/08/01 03:22:00;;;;;;;;;;;;;;;16.58;100.00;95353.53;5106587;28;20128;-75
2023/08/01 03:24:26;;;;;;;;;;;;;;;16.62;100.00;95354.53;5106823;28;19939;-74
2023/08/01 03:26:52;;;;;;;;;;;;;;;16.64;100.00;95355.81;5106528;28;19980;-72
2023/08/01 03:29:18;;;;;;;;;;;;;;;16.68;100.00;95360.56;5105463;28;19937;-72
2023/08/01 03:31:44;;;;;;;;;;;;;;;16.69;100.00;95370.06;5106115;28;19955;-72
2023/08/01 03:34:10;;;;;;;;;;;;;;;16.68;100.00;95364.00;5088535;28;19954;-72
2023/08/01 03:36:36;;;;;;;;;;;;;;;16.66;100.00;95363.50;5107158;28;20104;-73
2023/08/01 03:39:03;;;;;;;;;;;;;;;16.66;100.00;95370.66;5105932;28;19940;-72
2023/08/01 03:41:29;;;;;;;;;;;;;;;16.65;100.00;95375.13;5105023;28;19951;-75
2023/08/01 03:43:55;;;;;;;;;;;;;;;16.66;100.00;95375.94;5106460;28;19939;-75
2023/08/01 03:46:21;;;;;;;;;;;;;;;16.66;100.00;95383.88;5105117;28;19999;-72
2023/08/01 03:48:47;;;;;;;;;;;;;;;16.66;100.00;95383.88;5106326;28;20021;-72
2023/08/01 03:51:15;;;;;;;;;;;;;;;16.66;100.00;95392.59;5088006;28;19960;-72
2023/08/01 03:53:41;;;;;;;;;;;;;;;16.63;100.00;95380.72;5105926;28;19965;-72
2023/08/01 03:56:07;;;;;;;;;;;;;;;16.62;100.00;95384.44;5105853;28;20284;-73
2023/08/01 03:58:33;;;;;;;;;;;;;;;16.62;100.00;95381.78;5105897;28;19935;-72
2023/08/01 04:00:59;;;;;;;;;;;;;;;16.61;100.00;95380.22;5105319;28;20021;-76
2023/08/01 04:03:25;;;;;;;;;;;;;;;16.62;100.00;95373.06;5104684;28;19936;-76
2023/08/01 04:05:50;;;;;;;;;;;;;;;16.63;100.00;95377.28;5104701;28;20132;-75
2023/08/01 04:08:16;;;;;;;;;;;;;;;16.62;100.00;95373.84;5087689;28;20146;-76
2023/08/01 04:10:42;;;;;;;;;;;;;;;16.61;100.00;95382.88;5104559;28;20222;-75
2023/08/01 04:13:08;;;;;;;;;;;;;;;16.62;100.00;95367.78;5104508;28;19939;-76
2023/08/01 04:15:34;;;;;;;;;;;;;;;16.62;100.00;95367.78;5106308;28;19976;-76
2023/08/01 04:18:00;;;;;;;;;;;;;;;16.62;100.00;95359.84;5088284;28;20221;-77
2023/08/01 04:20:26;;;;;;;;;;;;;;;16.62;100.00;95347.38;5105346;28;19962;-76
2023/08/01 04:22:52;;;;;;;;;;;;;;;16.61;100.00;95343.16;5087451;28;19987;-79
2023/08/01 04:25:18;;;;;;;;;;;;;;;16.61;100.00;95345.81;5104218;28;19945;-80
2023/08/01 04:27:43;;;;;;;;;;;;;;;16.60;100.00;95338.16;5105054;28;19944;-78
2023/08/01 04:30:10;;;;;;;;;;;;;;;16.59;100.00;95318.06;5104199;28;19949;-79
2023/08/01 04:32:35;;;;;;;;;;;;;;;16.59;100.00;95278.38;5104950;28;19942;-79
2023/08/01 04:35:01;;;;;;;;;;;;;;;16.58;100.00;95237.06;5087823;28;20289;-79
2023/08/01 04:37:27;;;;;;;;;;;;;;;16.54;100.00;95258.03;5087122;28;20275;-77
2023/08/01 04:39:53;;;;;;;;;;;;;;;16.52;100.00;95236.34;5104813;28;19931;-77
2023/08/01 04:42:19;;;;;;;;;;;;;;;16.50;100.00;95211.25;5104031;28;20254;-79
2023/08/01 04:44:45;;;;;;;;;;;;;;;16.50;100.00;95214.69;5105604;28;19933;-79
2023/08/01 04:47:11;;;;;;;;;;;;;;;16.49;100.00;95204.41;5104868;28;19977;-79
2023/08/01 04:49:36;;;;;;;;;;;;;;;16.48;100.00;95189.56;5103796;28;19941;-79
2023/08/01 04:52:02;;;;;;;;;;;;;;;16.47;100.00;95177.44;5104816;28;19942;-79
2023/08/01 04:54:28;;;;;;;;;;;;;;;16.45;100.00;95185.66;5103874;28;20020;-80
2023/08/01 04:56:54;;;;;;;;;;;;;;;16.46;100.00;95183.78;5104767;28;19975;-73
2023/08/01 04:59:20;;;;;;;;;;;;;;;16.44;100.00;95197.28;5104331;28;20124;-76
2023/08/01 05:01:46;;;;;;;;;;;;;;;16.47;100.00;95231.13;5104604;28;19935;-76
2023/08/01 05:04:11;;;;;;;;;;;;;;;16.47;100.00;95233.00;5103458;28;19938;-77
2023/08/01 05:06:37;;;;;;;;;;;;;;;16.48;100.00;95211.53;5104864;28;19933;-76
2023/08/01 05:09:04;;;;;;;;;;;;;;;16.49;100.00;95204.41;5087389;28;19940;-75
2023/08/01 05:11:30;;;;;;;;;;;;;;;16.49;100.00;95197.25;5104521;28;19942;-76
2023/08/01 05:13:56;;;;;;;;;;;;;;;16.50;100.00;95208.59;5103606;28;19960;-74
2023/08/01 05:16:21;;;;;;;;;;;;;;;16.50;100.00;95212.03;5104513;28;19937;-73
2023/08/01 05:18:47;;;;;;;;;;;;;;;16.52;100.00;95201.94;5103725;28;20017;-77
2023/08/01 05:21:13;;;;;;;;;;;;;;;16.53;100.00;95195.59;5104085;28;19942;-76
2023/08/01 05:23:39;;;;;;;;;;;;;;;16.55;100.00;95195.31;5104093;28;20235;-76
2023/08/01 05:26:05;;;;;;;;;;;;;;;16.55;100.00;95201.38;5086378;28;19966;-76
2023/08/01 05:28:31;;;;;;;;;;;;;;;16.58;100.00;95203.44;5087159;28;20134;-76
2023/08/01 05:30:57;;;;;;;;;;;;;;;16.60;100.00;95222.47;5104229;28;19944;-74
2023/08/01 05:33:23;;;;;;;;;;;;;;;16.60;100.00;95225.13;5104277;28;19983;-77
2023/08/01 05:35:49;;;;;;;;;;;;;;;16.62;100.00;95235.44;5086961;28;19994;-78
2023/08/01 05:38:14;;;;;;;;;;;;;;;16.62;100.00;95228.28;5103824;28;19943;-78
2023/08/01 05:40:40;;;;;;;;;;;;;;;16.65;100.00;95237.50;5104499;28;19934;-78
2023/08/01 05:43:08;;;;;;;;;;;;;;;16.67;100.00;95237.22;5104651;28;19933;-77
2023/08/01 05:45:34;;;;;;;;;;;;;;;16.69;100.00;95232.44;5104398;28;19936;-76
2023/08/01 05:48:00;;;;;;;;;;;;;;;16.70;100.00;95218.13;5104144;28;20127;-77
2023/08/01 05:50:26;;;;;;;;;;;;;;;16.72;100.00;95230.00;5102891;28;19949;-72
2023/08/01 05:52:52;;;;;;;;;;;;;;;16.73;100.00;95239.50;5104046;28;19939;-79
2023/08/01 05:55:18;;;;;;;;;;;;;;;16.73;100.00;95244.81;5104204;28;19969;-80
2023/08/01 05:57:44;;;;;;;;;;;;;;;16.74;100.00;95233.16;5104442;28;19963;-80
2023/08/01 06:00:10;;;;;;;;;;;;;;;16.73;100.00;95250.09;5091168;28;19939;-78
2023/08/01 06:02:36;;;;;;;;;;;;;;;16.74;100.00;95253.56;5106969;28;19944;-80
2023/08/01 06:05:02;;;;;;;;;;;;;;;16.72;100.00;95272.34;5107026;28;20100;-77
2023/08/01 06:07:28;;;;;;;;;;;;;;;16.70;100.00;95260.50;5108812;28;19941;-77
2023/08/01 06:09:55;;;;;;;;;;;;;;;16.71;100.00;95257.53;5106845;28;20153;-72
2023/08/01 06:12:21;;;;;;;;;;;;;;;16.71;100.00;95246.94;5107334;28;20131;-74
2023/08/01 06:14:48;;;;;;;;;;;;;;;16.72;100.00;95253.81;5107779;28;20244;-74
2023/08/01 06:17:14;;;;;;;;;;;;;;;16.75;100.00;95253.25;5107802;28;19939;-73
2023/08/01 06:19:40;;;;;;;;;;;;;;;16.77;100.00;95247.66;5107810;28;20036;-74
2023/08/01 06:22:05;;;;;;;;;;;;;;;16.77;100.00;95252.97;5108012;28;19967;-74
2023/08/01 06:24:31;;;;;;;;;;;;;;;16.75;100.00;95260.41;5107697;28;19945;-74
2023/08/01 06:26:57;;;;;;;;;;;;;;;16.74;100.00;95264.13;5108238;28;19938;-75
2023/08/01 06:29:24;;;;;;;;;;;;;;;16.74;100.00;95272.09;5107586;28;19958;-74
2023/08/01 06:31:50;;;;;;;;;;;;;;;16.73;100.00;95265.97;5107326;28;19939;-80
2023/08/01 06:34:16;;;;;;;;;;;;;;;16.72;100.00;95263.63;5107443;28;19951;-79
2023/08/01 06:36:42;;;;;;;;;;;;;;;16.71;100.00;95273.41;5108269;28;20132;-78
2023/08/01 06:39:08;;;;;;;;;;;;;;;16.73;100.00;95273.13;5107425;28;20268;-79
2023/08/01 06:41:34;;;;;;;;;;;;;;;16.74;100.00;95285.31;5108264;28;20248;-79
2023/08/01 06:43:59;;;;;;;;;;;;;;;16.73;100.00;95281.06;5106224;28;20149;-78
2023/08/01 06:46:25;;;;;;;;;;;;;;;16.74;100.00;95278.16;5108130;28;20107;-76
2023/08/01 06:48:51;;;;;;;;;;;;;;;16.73;100.00;95276.56;5106224;28;19934;-73
2023/08/01 06:51:17;;;;;;;;;;;;;;;16.76;100.00;95265.41;5106619;28;20003;-73
2023/08/01 06:53:43;;;;;;;;;;;;;;;16.79;100.00;95269.34;5089141;28;19947;-73
2023/08/01 06:56:09;;;;;;;;;;;;;;;16.82;100.00;95272.25;5106266;28;19970;-73
2023/08/01 06:58:34;;;;;;;;;;;;;;;16.86;100.00;95271.66;5105881;28;19943;-73
2023/08/01 07:01:00;;;;;;;;;;;;;;;16.91;100.00;95276.91;5106699;28;19941;-74
2023/08/01 07:03:26;;;;;;;;;;;;;;;16.95;100.00;95262.03;5105836;28;19936;-73
2023/08/01 07:05:52;;;;;;;;;;;;;;;16.95;100.00;95273.41;5106900;28;19972;-76
2023/08/01 07:08:18;;;;;;;;;;;;;;;16.95;100.00;95280.56;5106555;28;19980;-78
2023/08/01 07:10:45;;;;;;;;;;;;;;;16.91;100.00;95279.56;5106701;28;19978;-77
2023/08/01 07:13:11;;;;;;;;;;;;;;;16.88;100.00;95280.91;5105592;28;19937;-77
2023/08/01 07:15:36;;;;;;;;;;;;;;;16.89;100.00;95301.00;5106591;28;19957;-78
2023/08/01 07:18:03;;;;;;;;;;;;;;;16.87;100.00;95286.50;5089404;28;19938;-78
2023/08/01 07:20:28;;;;;;;;;;;;;;;16.91;100.00;95290.16;5106475;28;20067;-76
2023/08/01 07:22:54;;;;;;;;;;;;;;;16.98;100.00;95282.63;5107136;28;19967;-72
2023/08/01 07:25:20;;;;;;;;;;;;;;;17.09;100.00;95291.19;5088494;28;19946;-73
2023/08/01 07:27:46;;;;;;;;;;;;;;;17.19;100.00;95285.75;5105973;28;19942;-77
2023/08/01 07:30:12;;;;;;;;;;;;;;;17.17;100.00;95288.69;5106672;28;19941;-76
2023/08/01 07:32:38;;;;;;;;;;;;;;;17.05;100.00;95293.66;5105820;28;20238;-76
2023/08/01 07:35:05;;;;;;;;;;;;;;;16.93;100.00;95296.72;5106808;28;19989;-75
2023/08/01 07:37:33;;;;;;;;;;;;;;;16.77;100.00;95303.25;5106833;28;19962;-75
2023/08/01 07:39:59;;;;;;;;;;;;;;;16.63;100.00;95301.31;5106299;28;19957;-75
2023/08/01 07:42:25;;;;;;;;;;;;;;;16.52;100.00;95294.56;5106215;28;20229;-78
2023/08/01 07:44:50;;;;;;;;;;;;;;;16.42;100.00;95302.63;5105994;28;19971;-77
2023/08/01 07:47:16;;;;;;;;;;;;;;;16.32;100.00;95292.19;5105948;28;20229;-79
2023/08/01 07:49:42;;;;;;;;;;;;;;;16.23;100.00;95292.00;5106250;28;19975;-76
2023/08/01 07:52:08;;;;;;;;;;;;;;;16.16;100.00;95296.84;5106900;28;19938;-78
2023/08/01 07:54:34;;;;;;;;;;;;;;;16.13;100.00;95292.13;5105689;28;19956;-78
2023/08/01 07:57:00;;;;;;;;;;;;;;;16.07;100.00;95303.84;5106268;28;20026;-78
2023/08/01 07:59:26;;;;;;;;;;;;;;;16.01;100.00;95303.88;5106703;28;19943;-72
2023/08/01 08:01:52;;;;;;;;;;;;;;;15.96;100.00;95296.00;5105946;28;19936;-77
2023/08/01 08:04:18;;;;;;;;;;;;;;;15.92;100.00;95294.97;5106176;28;20128;-80
2023/08/01 08:06:44;;;;;;;;;;;;;;;15.89;100.00;95282.31;5106393;28;19937;-81
2023/08/01 08:09:10;;;;;;;;;;;;;;;15.88;100.00;95269.38;5105829;28;19938;-81
2023/08/01 08:11:36;;;;;;;;;;;;;;;15.86;100.00;95256.44;5105777;28;19941;-81
2023/08/01 08:14:02;;;;;;;;;;;;;;;15.85;100.00;95265.44;5105590;28;19941;-83
2023/08/01 08:16:28;;;;;;;;;;;;;;;15.90;100.00;95272.53;5105620;28;19942;-81
2023/08/01 08:18:54;;;;;;;;;;;;;;;15.89;100.00;95279.66;5105955;28;19970;-71
2023/08/01 08:21:20;;;;;;;;;;;;;;;15.92;100.00;95284.41;5087399;28;19945;-73
2023/08/01 08:23:45;;;;;;;;;;;;;;;15.93;100.00;95288.59;5105434;28;19983;-73
2023/08/01 08:26:11;;;;;;;;;;;;;;;15.96;100.00;95284.66;5105015;28;19941;-73
2023/08/01 08:28:37;;;;;;;;;;;;;;;16.00;100.00;95291.72;5105887;28;19942;-74
2023/08/01 08:31:04;;;;;;;;;;;;;;;16.08;100.00;95286.88;5105607;28;19974;-74
2023/08/01 08:33:30;;;;;;;;;;;;;;;16.15;100.00;95282.84;5105334;28;19942;-73
2023/08/01 08:35:56;;;;;;;;;;;;;;;16.21;100.00;95284.38;5105193;28;19961;-75
2023/08/01 08:38:21;;;;;;;;;;;;;;;16.24;100.00;95296.22;5105237;28;19940;-78
2023/08/01 08:41:09;;;;;;;;;;;;;;;16.24;100.00;95307.59;5104897;28;20169;-81
2023/08/01 08:43:35;;;;;;;;;;;;;;;16.23;100.00;95308.69;5103979;28;20135;-81
2023/08/01 08:46:02;;;;;;;;;;;;;;;16.24;100.00;95306.81;5105857;28;19940;-81
2023/08/01 08:48:28;;;;;;;;;;;;;;;16.26;100.00;95325.84;5104268;28;19934;-81
2023/08/01 08:50:57;;;;;;;;;;;;;;;16.29;100.00;95312.03;5104699;28;20126;-80
2023/08/01 08:53:23;;;;;;;;;;;;;;;16.32;100.00;95303.53;5105896;28;19941;-81
2023/08/01 08:55:48;;;;;;;;;;;;;;;16.40;100.00;95307.44;5104865;28;19959;-72
2023/08/01 08:58:15;;;;;;;;;;;;;;;16.46;100.00;95292.28;5104372;28;19940;-70
2023/08/01 09:00:41;;;;;;;;;;;;;;;16.51;100.00;95292.22;5103761;28;19944;-71
2023/08/01 09:03:07;;;;;;;;;;;;;;;16.57;100.00;95307.75;5103592;28;19940;-71
2023/08/01 09:05:37;;;;;;;;;;;;;;;16.60;100.00;95296.59;5104559;28;19941;-71
2023/08/01 09:08:07;;;;;;;;;;;;;;;16.62;100.00;95298.97;5103482;28;19996;-72
2023/08/01 09:10:33;;;;;;;;;;;;;;;16.67;100.00;95295.44;5103536;28;19951;-71
2023/08/01 09:13:00;;;;;;;;;;;;;;;16.69;100.00;95299.38;5103550;28;19946;-73
2023/08/01 09:15:27;;;;;;;;;;;;;;;16.79;100.00;95309.06;5105335;28;19956;-72
2023/08/01 09:17:56;;;;;;;;;;;;;;;16.86;100.00;95306.09;5104584;28;19948;-72
2023/08/01 09:20:22;;;;;;;;;;;;;;;16.89;100.00;95302.88;5103339;28;19967;-72
2023/08/01 09:22:48;;;;;;;;;;;;;;;16.90;100.00;95309.75;5105295;28;19939;-72
2023/08/01 09:25:14;;;;;;;;;;;;;;;16.94;100.00;95303.59;5105311;28;19936;-72
2023/08/01 09:27:39;;;;;;;;;;;;;;;16.99;100.00;95310.69;5104451;28;19963;-73
2023/08/01 09:30:17;;;;;;;;;;;;;;;17.03;100.00;95314.34;5103596;28;20093;-72
2023/08/01 09:32:52;;;;;;;;;;;;;;;17.05;100.00;95312.19;5104758;28;19936;-72
2023/08/01 09:35:18;;;;;;;;;;;;;;;17.09;100.00;95315.81;5086267;28;19951;-75
2023/08/01 09:37:44;;;;;;;;;;;;;;;17.15;100.00;95335.09;5103245;28;19981;-74
2023/08/01 09:40:10;;;;;;;;;;;;;;;17.18;100.00;95332.66;5103240;28;19947;-74
2023/08/01 09:42:43;;;;;;;;;;;;;;;17.21;100.00;95321.47;5104640;28;19939;-73
2023/08/01 09:45:15;;;;;;;;;;;;;;;17.29;100.00;95328.00;5104398;28;20128;-73
2023/08/01 09:47:42;;;;;;;;;;;;;;;17.34;100.00;95335.06;5103867;28;19938;-74
2023/08/01 09:50:13;;;;;;;;;;;;;;;17.34;100.00;95335.88;5103680;28;19937;-72
2023/08/01 09:52:39;;;;;;;;;;;;;;;17.36;100.00;95333.72;5103103;28;19940;-72
2023/08/01 09:55:05;;;;;;;;;;;;;;;17.36;100.00;95327.63;5102994;28;20287;-73
2023/08/01 09:57:31;;;;;;;;;;;;;;;17.38;100.00;95322.84;5086119;28;19955;-72
2023/08/01 09:59:58;;;;;;;;;;;;;;;17.41;100.00;95323.06;5085980;28;19936;-72
2023/08/01 10:02:25;;;;;;;;;;;;;;;17.43;100.00;95328.06;5104016;28;19932;-73
2023/08/01 10:04:52;;;;;;;;;;;;;;;17.47;100.00;95325.59;5103001;28;19928;-73
2023/08/01 10:07:20;;;;;;;;;;;;;;;17.48;100.00;95330.63;5104050;28;19936;-73
2023/08/01 10:09:47;;;;;;;;;;;;;;;17.49;100.00;95318.16;5104036;28;19944;-73
2023/08/01 10:12:15;;;;;;;;;;;;;;;17.52;100.00;95331.63;5102819;28;19940;-76
2023/08/01 10:14:41;;;;;;;;;;;;;;;17.51;100.00;95327.38;5086681;28;19935;-77
2023/08/01 10:17:07;;;;;;;;;;;;;;;17.53;100.00;95327.09;5103186;28;20228;-76
2023/08/01 10:19:34;;;;;;;;;;;;;;;17.57;100.00;95320.94;5102522;28;19978;-77
2023/08/01 10:22:00;;;;;;;;;;;;;;;17.65;100.00;95324.78;5103585;28;19951;-76
2023/08/01 10:24:28;;;;;;;;;;;;;;;17.71;100.00;95336.91;5102982;28;20111;-77
2023/08/01 10:26:54;;;;;;;;;;;;;;;17.71;100.00;95336.13;5104383;28;19948;-72
2023/08/01 10:29:20;;;;;;;;;;;;;;;17.74;100.00;95340.81;5102621;28;19952;-73
2023/08/01 10:31:52;;;;;;;;;;;;;;;17.81;100.00;95343.91;5086641;28;19940;-83
2023/08/01 10:34:20;;;;;;;;;;;;;;;17.95;100.00;95338.66;5103797;28;20127;-82
2023/08/01 10:36:56;;;;;;;;;;;;;;;18.18;100.00;95340.34;5102463;28;20064;-82
2023/08/01 10:39:22;;;;;;;;;;;;;;;18.38;100.00;95328.59;5103723;28;19939;-82
2023/08/01 10:41:56;;;;;;;;;;;;;;;18.73;100.00;95328.16;5103763;28;19949;-82
2023/08/01 10:44:22;;;;;;;;;;;;;;;19.10;100.00;95321.06;5104919;28;19941;-82
2023/08/01 10:46:48;;;;;;;;;;;;;;;19.36;100.00;95343.31;5107690;28;19940;-73
2023/08/01 10:49:14;;;;;;;;;;;;;;;19.46;100.00;95334.31;5107007;28;19947;-72
2023/08/01 10:51:40;;;;;;;;;;;;;;;19.50;100.00;95340.59;5106738;28;19938;-72
2023/08/01 10:54:06;;;;;;;;;;;;;;;19.47;100.00;95334.03;5106414;28;19938;-72
2023/08/01 10:56:32;;;;;;;;;;;;;;;19.39;100.00;95325.97;5107086;28;19960;-72
2023/08/01 10:58:58;;;;;;;;;;;;;;;19.24;100.00;95335.09;5089158;28;20166;-71
2023/08/01 11:01:26;;;;;;;;;;;;;;;19.00;100.00;95330.03;5105938;28;19946;-72
2023/08/01 11:03:52;;;;;;;;;;;;;;;18.93;100.00;95356.22;5107883;28;19944;-72
2023/08/01 11:06:18;;;;;;;;;;;;;;;19.16;100.00;95344.56;5088951;28;19944;-76
2023/08/01 11:08:44;;;;;;;;;;;;;;;19.51;100.00;95328.09;5105949;28;19936;-71
2023/08/01 11:11:13;;;;;;;;;;;;;;;19.57;99.31;95338.31;5088797;28;20251;-71
2023/08/01 11:13:39;;;;;;;;;;;;;;;19.50;100.00;95350.47;5107678;28;19943;-71
2023/08/01 11:16:06;;;;;;;;;;;;;;;19.27;93.77;95339.78;5088735;28;19964;-71
2023/08/01 11:18:42;;;;;;;;;;;;;;;19.16;96.05;95352.53;5105659;28;19991;-71
2023/08/01 11:21:08;;;;;;;;;;;;;;;19.18;95.82;95346.91;5107496;28;20230;-71
2023/08/01 11:23:33;;;;;;;;;;;;;;;19.24;90.16;95322.59;5105529;28;19938;-70
2023/08/01 11:25:59;;;;;;;;;;;;;;;19.41;94.27;95353.84;5089355;28;19952;-72
2023/08/01 11:28:25;;;;;;;;;;;;;;;19.63;85.12;95296.41;5105363;28;19936;-73
2023/08/01 11:30:51;;;;;;;;;;;;;;;19.87;91.27;95326.19;5105884;28;19942;-72
2023/08/01 11:33:21;;;;;;;;;;;;;;;20.09;86.98;95303.28;5105279;28;19984;-73
2023/08/01 11:35:57;;;;;;;;;;;;;;;20.18;81.70;95271.34;5106297;28;19952;-72
2023/08/01 11:38:23;;;;;;;;;;;;;;;20.15;82.42;95304.72;5105123;28;19940;-73
2023/08/01 11:40:50;;;;;;;;;;;;;;;20.24;82.50;95294.91;5105156;28;19938;-80
2023/08/01 11:43:16;;;;;;;;;;;;;;;20.44;81.34;95301.53;5106742;28;19934;-71
2023/08/01 11:45:54;;;;;;;;;;;;;;;20.67;79.98;95293.47;5088184;28;19950;-70
2023/08/01 11:48:23;;;;;;;;;;;;;;;20.76;79.97;95304.16;5088119;28;19947;-71
2023/08/01 11:50:49;;;;;;;;;;;;;;;20.97;82.33;95320.31;5106912;28;20123;-70
2023/08/01 11:53:22;;;;;;;;;;;;;;;20.86;74.98;95277.97;5104798;28;19943;-70
2023/08/01 11:55:49;;;;;;;;;;;;;;;20.74;76.25;95287.69;5105381;28;19950;-71
2023/08/01 11:58:15;;;;;;;;;;;;;;;20.55;80.11;95314.56;5106376;28;19937;-70
2023/08/01 12:00:42;;;;;;;;;;;;;;;20.33;80.24;95334.88;5105918;28;20137;-71
2023/08/01 12:03:13;;;;;;;;;;;;;;;20.24;75.29;95307.41;5106596;28;19937;-78
2023/08/01 12:05:41;;;;;;;;;;;;;;;20.25;83.42;95351.56;5105422;28;19941;-77
2023/08/01 12:08:10;;;;;;;;;;;;;;;20.26;77.44;95306.03;5106092;28;19940;-78
2023/08/01 12:10:45;;;;;;;;;;;;;;;20.12;79.20;95307.22;5105891;28;20245;-77
2023/08/01 12:13:21;;;;;;;;;;;;;;;19.84;75.60;95324.13;5105170;28;19940;-78
2023/08/01 12:15:48;;;;;;;;;;;;;;;19.72;76.45;95320.44;5104940;28;19949;-77
2023/08/01 12:18:24;;;;;;;;;;;;;;;19.82;80.15;95354.78;5104094;28;19946;-74
2023/08/01 12:20:50;;;;;;;;;;;;;;;20.15;73.79;95301.25;5104881;28;19954;-80
2023/08/01 12:23:16;;;;;;;;;;;;;;;20.45;72.08;95273.00;5105314;28;20009;-79
2023/08/01 12:25:42;;;;;;;;;;;;;;;20.56;69.59;95268.97;5104853;28;19941;-77
2023/08/01 12:28:08;;;;;;;;;;;;;;;20.79;73.68;95308.84;5105273;28;20002;-77
2023/08/01 12:30:33;;;;;;;;;;;;;;;21.00;69.94;95271.75;5105297;28;19987;-79
2023/08/01 12:33:00;;;;;;;;;;;;;;;21.19;70.83;95271.44;5105398;28;19933;-78
2023/08/01 12:35:27;;;;;;;;;;;;;;;21.36;68.27;95254.63;5105125;28;19960;-73